sensor_id;sensor_type;location;lat;lon;timestamp;temperature;humidity
42141;DHT22;27809;51.864;5.646;2022-12-29T00:01:39;10.30;99.90
42141;DHT22;27809;51.864;5.646;2022-12-29T00:04:05;10.30;99.90
42141;DHT22;27809;51.864;5.646;2022-12-29T00:06:31;10.40;99.90
42141;DHT22;27809;51.864;5.646;2022-12-29T00:08:57;10.60;99.90
42141;DHT22;27809;51.864;5.646;2022-12-29T00:11:25;10.50;99.90
42141;DHT22;27809;51.864;5.646;2022-12-29T00:13:52;10.50;99.90
42141;DHT22;27809;51.864;5.646;2022-12-29T00:16:37;10.40;99.90
42141;DHT22;27809;51.864;5.646;2022-12-29T00:19:04;10.40;99.90
42141;DHT22;27809;51.864;5.646;2022-12-29T00:21:29;10.40;99.90
42141;DHT22;27809;51.864;5.646;2022-12-29T00:24:19;10.60;99.90
42141;DHT22;27809;51.864;5.646;2022-12-29T00:27:17;10.60;99.90
42141;DHT22;27809;51.864;5.646;2022-12-29T00:30:01;10.60;99.90
42141;DHT22;27809;51.864;5.646;2022-12-29T00:32:45;10.50;99.90
42141;DHT22;27809;51.864;5.646;2022-12-29T00:35:38;10.50;99.90
42141;DHT22;27809;51.864;5.646;2022-12-29T00:38:06;10.40;99.90
42141;DHT22;27809;51.864;5.646;2022-12-29T00:40:51;10.50;99.90
42141;DHT22;27809;51.864;5.646;2022-12-29T00:43:35;10.50;99.90
42141;DHT22;27809;51.864;5.646;2022-12-29T00:46:19;10.50;99.90
42141;DHT22;27809;51.864;5.646;2022-12-29T00:48:44;10.50;99.90
42141;DHT22;27809;51.864;5.646;2022-12-29T00:51:29;10.40;99.90
42141;DHT22;27809;51.864;5.646;2022-12-29T00:53:54;10.30;99.90
42141;DHT22;27809;51.864;5.646;2022-12-29T00:56:20;10.30;99.90
42141;DHT22;27809;51.864;5.646;2022-12-29T00:58:45;10.30;99.90
42141;DHT22;27809;51.864;5.646;2022-12-29T01:01:11;10.40;99.90
42141;DHT22;27809;51.864;5.646;2022-12-29T01:03:37;10.40;99.90
42141;DHT22;27809;51.864;5.646;2022-12-29T01:06:04;10.40;99.90
42141;DHT22;27809;51.864;5.646;2022-12-29T01:08:31;10.40;99.90
42141;DHT22;27809;51.864;5.646;2022-12-29T01:11:10;10.40;99.90
42141;DHT22;27809;51.864;5.646;2022-12-29T01:13:37;10.40;99.90
42141;DHT22;27809;51.864;5.646;2022-12-29T01:16:04;10.30;99.90
42141;DHT22;27809;51.864;5.646;2022-12-29T01:18:30;10.30;99.90
42141;DHT22;27809;51.864;5.646;2022-12-29T01:21:04;10.30;99.90
42141;DHT22;27809;51.864;5.646;2022-12-29T01:23:31;10.20;99.90
42141;DHT22;27809;51.864;5.646;2022-12-29T01:25:56;10.20;99.90
42141;DHT22;27809;51.864;5.646;2022-12-29T01:28:22;10.10;99.90
42141;DHT22;27809;51.864;5.646;2022-12-29T01:30:48;10.20;99.90
42141;DHT22;27809;51.864;5.646;2022-12-29T01:33:13;10.10;99.90
42141;DHT22;27809;51.864;5.646;2022-12-29T01:35:39;10.10;99.90
42141;DHT22;27809;51.864;5.646;2022-12-29T01:38:05;10.20;99.90
42141;DHT22;27809;51.864;5.646;2022-12-29T01:40:30;10.10;99.90
42141;DHT22;27809;51.864;5.646;2022-12-29T01:42:56;10.10;99.90
42141;DHT22;27809;51.864;5.646;2022-12-29T01:45:22;10.10;99.90
42141;DHT22;27809;51.864;5.646;2022-12-29T01:47:54;10.20;99.90
42141;DHT22;27809;51.864;5.646;2022-12-29T01:50:32;10.20;99.90
42141;DHT22;27809;51.864;5.646;2022-12-29T01:53:26;10.20;99.90
42141;DHT22;27809;51.864;5.646;2022-12-29T01:55:58;10.30;99.90
42141;DHT22;27809;51.864;5.646;2022-12-29T01:58:27;10.30;99.90
42141;DHT22;27809;51.864;5.646;2022-12-29T02:00:54;10.30;99.90
42141;DHT22;27809;51.864;5.646;2022-12-29T02:03:21;10.30;99.90
42141;DHT22;27809;51.864;5.646;2022-12-29T02:06:31;10.40;99.90
42141;DHT22;27809;51.864;5.646;2022-12-29T02:08:52;10.30;99.90
42141;DHT22;27809;51.864;5.646;2022-12-29T02:11:19;10.40;99.90
42141;DHT22;27809;51.864;5.646;2022-12-29T02:13:45;10.50;99.90
42141;DHT22;27809;51.864;5.646;2022-12-29T02:19:48;10.60;99.90
42141;DHT22;27809;51.864;5.646;2022-12-29T02:22:34;10.70;99.90
42141;DHT22;27809;51.864;5.646;2022-12-29T02:25:39;10.70;99.90
42141;DHT22;27809;51.864;5.646;2022-12-29T02:28:12;10.70;99.90
42141;DHT22;27809;51.864;5.646;2022-12-29T02:33:22;11.00;99.90
42141;DHT22;27809;51.864;5.646;2022-12-29T02:38:47;11.00;99.90
42141;DHT22;27809;51.864;5.646;2022-12-29T02:41:32;11.00;99.90
42141;DHT22;27809;51.864;5.646;2022-12-29T02:44:15;10.90;99.90
42141;DHT22;27809;51.864;5.646;2022-12-29T02:49:38;11.00;99.90
42141;DHT22;27809;51.864;5.646;2022-12-29T02:52:09;10.90;99.90
42141;DHT22;27809;51.864;5.646;2022-12-29T02:54:37;10.90;99.90
42141;DHT22;27809;51.864;5.646;2022-12-29T02:59:52;10.90;99.90
42141;DHT22;27809;51.864;5.646;2022-12-29T03:10:59;11.00;99.90
42141;DHT22;27809;51.864;5.646;2022-12-29T03:13:43;11.10;99.90
42141;DHT22;27809;51.864;5.646;2022-12-29T03:19:08;11.10;99.90
42141;DHT22;27809;51.864;5.646;2022-12-29T03:21:39;11.00;99.90
42141;DHT22;27809;51.864;5.646;2022-12-29T03:24:28;11.00;99.90
42141;DHT22;27809;51.864;5.646;2022-12-29T03:26:56;11.10;99.90
42141;DHT22;27809;51.864;5.646;2022-12-29T03:29:23;11.00;99.90
42141;DHT22;27809;51.864;5.646;2022-12-29T03:31:51;11.00;99.90
42141;DHT22;27809;51.864;5.646;2022-12-29T03:34:20;10.90;99.90
42141;DHT22;27809;51.864;5.646;2022-12-29T03:37:00;10.90;99.90
42141;DHT22;27809;51.864;5.646;2022-12-29T03:39:28;10.90;99.90
42141;DHT22;27809;51.864;5.646;2022-12-29T03:42:04;11.00;99.90
42141;DHT22;27809;51.864;5.646;2022-12-29T03:44:34;11.00;99.90
42141;DHT22;27809;51.864;5.646;2022-12-29T03:47:01;10.90;99.90
42141;DHT22;27809;51.864;5.646;2022-12-29T03:49:27;10.90;99.90
42141;DHT22;27809;51.864;5.646;2022-12-29T03:51:52;10.80;99.90
42141;DHT22;27809;51.864;5.646;2022-12-29T03:54:18;10.80;99.90
42141;DHT22;27809;51.864;5.646;2022-12-29T03:56:44;10.80;99.90
42141;DHT22;27809;51.864;5.646;2022-12-29T03:59:09;10.70;99.90
42141;DHT22;27809;51.864;5.646;2022-12-29T04:01:35;10.70;99.90
42141;DHT22;27809;51.864;5.646;2022-12-29T04:04:00;10.70;99.90
42141;DHT22;27809;51.864;5.646;2022-12-29T04:06:25;10.60;99.90
42141;DHT22;27809;51.864;5.646;2022-12-29T04:08:51;10.60;99.90
42141;DHT22;27809;51.864;5.646;2022-12-29T04:11:16;10.50;99.90
42141;DHT22;27809;51.864;5.646;2022-12-29T04:13:42;10.60;99.90
42141;DHT22;27809;51.864;5.646;2022-12-29T04:16:07;10.60;99.90
42141;DHT22;27809;51.864;5.646;2022-12-29T04:18:33;10.60;99.90
42141;DHT22;27809;51.864;5.646;2022-12-29T04:20:59;10.50;99.90
42141;DHT22;27809;51.864;5.646;2022-12-29T04:23:24;10.50;99.90
42141;DHT22;27809;51.864;5.646;2022-12-29T04:25:50;10.60;99.90
42141;DHT22;27809;51.864;5.646;2022-12-29T04:28:16;10.50;99.90
42141;DHT22;27809;51.864;5.646;2022-12-29T04:30:45;10.50;99.90
42141;DHT22;27809;51.864;5.646;2022-12-29T04:33:11;10.40;99.90
42141;DHT22;27809;51.864;5.646;2022-12-29T04:35:37;10.30;99.90
42141;DHT22;27809;51.864;5.646;2022-12-29T04:38:02;10.30;99.90
42141;DHT22;27809;51.864;5.646;2022-12-29T04:40:28;10.20;99.90
42141;DHT22;27809;51.864;5.646;2022-12-29T04:42:54;10.20;99.90
42141;DHT22;27809;51.864;5.646;2022-12-29T04:45:20;10.20;99.90
42141;DHT22;27809;51.864;5.646;2022-12-29T04:47:45;10.20;99.90
42141;DHT22;27809;51.864;5.646;2022-12-29T04:50:11;10.20;99.90
42141;DHT22;27809;51.864;5.646;2022-12-29T04:52:37;10.10;99.90
42141;DHT22;27809;51.864;5.646;2022-12-29T04:55:03;10.10;99.90
42141;DHT22;27809;51.864;5.646;2022-12-29T04:57:29;10.10;99.90
42141;DHT22;27809;51.864;5.646;2022-12-29T04:59:55;9.90;99.90
42141;DHT22;27809;51.864;5.646;2022-12-29T05:02:20;9.90;99.90
42141;DHT22;27809;51.864;5.646;2022-12-29T05:04:46;10.00;99.90
42141;DHT22;27809;51.864;5.646;2022-12-29T05:07:12;9.90;99.90
42141;DHT22;27809;51.864;5.646;2022-12-29T05:09:38;9.90;99.90
42141;DHT22;27809;51.864;5.646;2022-12-29T05:12:04;9.80;99.90
42141;DHT22;27809;51.864;5.646;2022-12-29T05:14:29;9.70;99.90
42141;DHT22;27809;51.864;5.646;2022-12-29T05:16:55;9.60;99.90
42141;DHT22;27809;51.864;5.646;2022-12-29T05:19:20;9.40;99.90
42141;DHT22;27809;51.864;5.646;2022-12-29T05:21:46;9.30;99.90
42141;DHT22;27809;51.864;5.646;2022-12-29T05:24:11;9.20;99.90
42141;DHT22;27809;51.864;5.646;2022-12-29T05:26:37;9.10;99.90
42141;DHT22;27809;51.864;5.646;2022-12-29T05:29:03;9.10;99.90
42141;DHT22;27809;51.864;5.646;2022-12-29T05:31:28;9.00;99.90
42141;DHT22;27809;51.864;5.646;2022-12-29T05:33:54;9.00;99.90
42141;DHT22;27809;51.864;5.646;2022-12-29T05:36:19;8.90;99.90
42141;DHT22;27809;51.864;5.646;2022-12-29T05:38:45;8.80;99.90
42141;DHT22;27809;51.864;5.646;2022-12-29T05:41:11;8.90;99.90
42141;DHT22;27809;51.864;5.646;2022-12-29T05:43:36;9.00;99.90
42141;DHT22;27809;51.864;5.646;2022-12-29T05:46:02;8.80;99.90
42141;DHT22;27809;51.864;5.646;2022-12-29T05:48:28;8.90;99.90
42141;DHT22;27809;51.864;5.646;2022-12-29T05:50:54;9.10;99.90
42141;DHT22;27809;51.864;5.646;2022-12-29T05:53:19;9.20;99.90
42141;DHT22;27809;51.864;5.646;2022-12-29T05:55:47;9.10;99.90
42141;DHT22;27809;51.864;5.646;2022-12-29T05:58:12;9.10;99.90
42141;DHT22;27809;51.864;5.646;2022-12-29T06:00:38;9.10;99.90
42141;DHT22;27809;51.864;5.646;2022-12-29T06:03:04;9.00;99.90
42141;DHT22;27809;51.864;5.646;2022-12-29T06:05:29;8.90;99.90
42141;DHT22;27809;51.864;5.646;2022-12-29T06:07:55;9.00;99.90
42141;DHT22;27809;51.864;5.646;2022-12-29T06:10:20;8.90;99.90
42141;DHT22;27809;51.864;5.646;2022-12-29T06:12:46;9.00;99.90
42141;DHT22;27809;51.864;5.646;2022-12-29T06:15:12;8.90;99.90
42141;DHT22;27809;51.864;5.646;2022-12-29T06:17:38;8.90;99.90
42141;DHT22;27809;51.864;5.646;2022-12-29T06:20:04;8.90;99.90
42141;DHT22;27809;51.864;5.646;2022-12-29T06:22:30;8.90;99.90
42141;DHT22;27809;51.864;5.646;2022-12-29T06:24:56;8.90;99.90
42141;DHT22;27809;51.864;5.646;2022-12-29T06:27:21;9.00;99.90
42141;DHT22;27809;51.864;5.646;2022-12-29T06:29:47;8.90;99.90
42141;DHT22;27809;51.864;5.646;2022-12-29T06:32:13;9.00;99.90
42141;DHT22;27809;51.864;5.646;2022-12-29T06:34:38;9.20;99.90
42141;DHT22;27809;51.864;5.646;2022-12-29T06:37:04;9.30;99.90
42141;DHT22;27809;51.864;5.646;2022-12-29T06:39:29;9.30;99.90
42141;DHT22;27809;51.864;5.646;2022-12-29T06:41:55;9.20;99.90
42141;DHT22;27809;51.864;5.646;2022-12-29T06:44:21;9.30;99.90
42141;DHT22;27809;51.864;5.646;2022-12-29T06:46:47;9.30;99.90
42141;DHT22;27809;51.864;5.646;2022-12-29T06:49:12;9.30;99.90
42141;DHT22;27809;51.864;5.646;2022-12-29T06:51:38;9.40;99.90
42141;DHT22;27809;51.864;5.646;2022-12-29T06:54:03;9.30;99.90
42141;DHT22;27809;51.864;5.646;2022-12-29T06:56:29;9.30;99.90
42141;DHT22;27809;51.864;5.646;2022-12-29T06:58:54;9.20;99.90
42141;DHT22;27809;51.864;5.646;2022-12-29T07:01:20;9.30;99.90
42141;DHT22;27809;51.864;5.646;2022-12-29T07:03:46;9.40;99.90
42141;DHT22;27809;51.864;5.646;2022-12-29T07:06:11;9.50;99.90
42141;DHT22;27809;51.864;5.646;2022-12-29T07:08:37;9.50;99.90
42141;DHT22;27809;51.864;5.646;2022-12-29T07:11:04;9.50;99.90
42141;DHT22;27809;51.864;5.646;2022-12-29T07:13:30;9.50;99.90
42141;DHT22;27809;51.864;5.646;2022-12-29T07:15:55;9.50;99.90
42141;DHT22;27809;51.864;5.646;2022-12-29T07:18:21;9.40;99.90
42141;DHT22;27809;51.864;5.646;2022-12-29T07:20:47;9.50;99.90
42141;DHT22;27809;51.864;5.646;2022-12-29T07:23:13;9.50;99.90
42141;DHT22;27809;51.864;5.646;2022-12-29T07:25:38;9.50;99.90
42141;DHT22;27809;51.864;5.646;2022-12-29T07:28:06;9.50;99.90
42141;DHT22;27809;51.864;5.646;2022-12-29T07:30:31;9.60;99.90
42141;DHT22;27809;51.864;5.646;2022-12-29T07:32:57;9.60;99.90
42141;DHT22;27809;51.864;5.646;2022-12-29T07:35:22;9.70;99.90
42141;DHT22;27809;51.864;5.646;2022-12-29T07:37:48;9.70;99.90
42141;DHT22;27809;51.864;5.646;2022-12-29T07:40:13;9.60;99.90
42141;DHT22;27809;51.864;5.646;2022-12-29T07:42:39;9.70;99.90
42141;DHT22;27809;51.864;5.646;2022-12-29T07:45:05;9.60;99.90
42141;DHT22;27809;51.864;5.646;2022-12-29T07:47:31;9.70;99.90
42141;DHT22;27809;51.864;5.646;2022-12-29T07:49:56;9.60;99.90
42141;DHT22;27809;51.864;5.646;2022-12-29T07:52:21;9.50;99.90
42141;DHT22;27809;51.864;5.646;2022-12-29T07:54:47;9.50;99.90
42141;DHT22;27809;51.864;5.646;2022-12-29T07:57:13;9.40;99.90
42141;DHT22;27809;51.864;5.646;2022-12-29T07:59:38;9.50;99.90
42141;DHT22;27809;51.864;5.646;2022-12-29T08:02:04;9.70;99.90
42141;DHT22;27809;51.864;5.646;2022-12-29T08:04:29;9.50;99.90
42141;DHT22;27809;51.864;5.646;2022-12-29T08:06:55;9.60;99.90
42141;DHT22;27809;51.864;5.646;2022-12-29T08:09:20;9.60;99.90
42141;DHT22;27809;51.864;5.646;2022-12-29T08:11:46;9.50;99.90
42141;DHT22;27809;51.864;5.646;2022-12-29T08:14:11;9.50;99.90
42141;DHT22;27809;51.864;5.646;2022-12-29T08:16:37;9.50;99.90
42141;DHT22;27809;51.864;5.646;2022-12-29T08:19:02;9.60;99.90
42141;DHT22;27809;51.864;5.646;2022-12-29T08:21:29;9.60;99.90
42141;DHT22;27809;51.864;5.646;2022-12-29T08:23:55;9.50;99.90
42141;DHT22;27809;51.864;5.646;2022-12-29T08:26:21;9.60;99.90
42141;DHT22;27809;51.864;5.646;2022-12-29T08:28:47;9.70;99.90
42141;DHT22;27809;51.864;5.646;2022-12-29T08:31:12;9.70;99.90
42141;DHT22;27809;51.864;5.646;2022-12-29T08:33:38;9.80;99.90
42141;DHT22;27809;51.864;5.646;2022-12-29T08:36:05;10.00;99.90
42141;DHT22;27809;51.864;5.646;2022-12-29T08:38:32;9.80;99.90
42141;DHT22;27809;51.864;5.646;2022-12-29T08:40:58;9.80;99.90
42141;DHT22;27809;51.864;5.646;2022-12-29T08:43:27;10.00;99.90
42141;DHT22;27809;51.864;5.646;2022-12-29T08:45:52;10.00;99.90
42141;DHT22;27809;51.864;5.646;2022-12-29T08:48:18;10.10;99.90
42141;DHT22;27809;51.864;5.646;2022-12-29T08:50:45;10.00;99.90
42141;DHT22;27809;51.864;5.646;2022-12-29T08:53:11;10.00;99.90
42141;DHT22;27809;51.864;5.646;2022-12-29T08:55:36;9.90;99.90
42141;DHT22;27809;51.864;5.646;2022-12-29T08:58:02;9.90;99.90
42141;DHT22;27809;51.864;5.646;2022-12-29T09:00:27;10.20;99.90
42141;DHT22;27809;51.864;5.646;2022-12-29T09:02:53;10.20;99.90
42141;DHT22;27809;51.864;5.646;2022-12-29T09:05:19;10.10;99.90
42141;DHT22;27809;51.864;5.646;2022-12-29T09:07:44;10.10;99.90
42141;DHT22;27809;51.864;5.646;2022-12-29T09:10:10;9.70;99.90
42141;DHT22;27809;51.864;5.646;2022-12-29T09:12:35;9.50;99.90
42141;DHT22;27809;51.864;5.646;2022-12-29T09:15:01;9.50;99.90
42141;DHT22;27809;51.864;5.646;2022-12-29T09:17:27;9.40;99.90
42141;DHT22;27809;51.864;5.646;2022-12-29T09:20:16;9.40;99.90
42141;DHT22;27809;51.864;5.646;2022-12-29T09:22:42;10.00;99.90
42141;DHT22;27809;51.864;5.646;2022-12-29T09:25:08;9.70;99.90
42141;DHT22;27809;51.864;5.646;2022-12-29T09:27:35;9.60;99.90
42141;DHT22;27809;51.864;5.646;2022-12-29T09:30:01;9.60;99.90
42141;DHT22;27809;51.864;5.646;2022-12-29T09:32:27;9.60;99.90
42141;DHT22;27809;51.864;5.646;2022-12-29T09:34:52;9.70;99.90
42141;DHT22;27809;51.864;5.646;2022-12-29T09:37:18;9.60;99.90
42141;DHT22;27809;51.864;5.646;2022-12-29T09:39:44;9.70;99.90
42141;DHT22;27809;51.864;5.646;2022-12-29T09:42:23;9.70;99.90
42141;DHT22;27809;51.864;5.646;2022-12-29T09:45:22;9.70;99.90
42141;DHT22;27809;51.864;5.646;2022-12-29T09:47:51;9.60;99.90
42141;DHT22;27809;51.864;5.646;2022-12-29T09:50:30;9.60;99.90
42141;DHT22;27809;51.864;5.646;2022-12-29T09:55:38;9.40;99.90
42141;DHT22;27809;51.864;5.646;2022-12-29T09:58:10;9.40;99.90
42141;DHT22;27809;51.864;5.646;2022-12-29T10:00:50;9.30;99.90
42141;DHT22;27809;51.864;5.646;2022-12-29T10:03:21;9.30;99.90
42141;DHT22;27809;51.864;5.646;2022-12-29T10:06:10;9.30;99.90
42141;DHT22;27809;51.864;5.646;2022-12-29T10:08:48;9.30;99.90
42141;DHT22;27809;51.864;5.646;2022-12-29T10:11:37;9.20;99.90
42141;DHT22;27809;51.864;5.646;2022-12-29T10:20:22;9.10;99.90
42141;DHT22;27809;51.864;5.646;2022-12-29T10:25:38;9.10;99.90
42141;DHT22;27809;51.864;5.646;2022-12-29T10:28:34;9.10;99.90
42141;DHT22;27809;51.864;5.646;2022-12-29T10:31:01;9.10;99.90
42141;DHT22;27809;51.864;5.646;2022-12-29T10:33:36;9.10;99.90
42141;DHT22;27809;51.864;5.646;2022-12-29T10:36:17;9.10;99.90
42141;DHT22;27809;51.864;5.646;2022-12-29T10:38:46;9.10;99.90
42141;DHT22;27809;51.864;5.646;2022-12-29T10:41:28;9.10;99.90
42141;DHT22;27809;51.864;5.646;2022-12-29T10:43:57;9.20;99.90
42141;DHT22;27809;51.864;5.646;2022-12-29T10:46:25;9.20;99.90
42141;DHT22;27809;51.864;5.646;2022-12-29T10:48:52;9.20;99.90
42141;DHT22;27809;51.864;5.646;2022-12-29T10:51:30;9.30;99.90
42141;DHT22;27809;51.864;5.646;2022-12-29T10:54:03;9.30;99.90
42141;DHT22;27809;51.864;5.646;2022-12-29T10:56:32;9.20;99.90
42141;DHT22;27809;51.864;5.646;2022-12-29T10:59:06;9.30;99.90
42141;DHT22;27809;51.864;5.646;2022-12-29T11:01:42;9.40;99.90
42141;DHT22;27809;51.864;5.646;2022-12-29T11:07:34;9.70;99.90
42141;DHT22;27809;51.864;5.646;2022-12-29T11:12:57;9.60;99.90
42141;DHT22;27809;51.864;5.646;2022-12-29T11:15:23;9.60;99.90
42141;DHT22;27809;51.864;5.646;2022-12-29T11:17:57;9.70;99.90
42141;DHT22;27809;51.864;5.646;2022-12-29T11:20:36;9.70;99.90
42141;DHT22;27809;51.864;5.646;2022-12-29T11:23:04;9.80;99.90
42141;DHT22;27809;51.864;5.646;2022-12-29T11:25:30;9.90;99.90
42141;DHT22;27809;51.864;5.646;2022-12-29T11:28:02;9.70;99.90
42141;DHT22;27809;51.864;5.646;2022-12-29T11:30:31;9.70;99.90
42141;DHT22;27809;51.864;5.646;2022-12-29T11:32:57;9.80;99.90
42141;DHT22;27809;51.864;5.646;2022-12-29T11:35:35;10.70;99.90
42141;DHT22;27809;51.864;5.646;2022-12-29T11:38:02;10.50;99.90
42141;DHT22;27809;51.864;5.646;2022-12-29T11:40:29;10.00;99.90
42141;DHT22;27809;51.864;5.646;2022-12-29T11:42:58;10.10;99.90
42141;DHT22;27809;51.864;5.646;2022-12-29T11:45:30;10.00;99.90
42141;DHT22;27809;51.864;5.646;2022-12-29T11:48:01;9.90;99.90
42141;DHT22;27809;51.864;5.646;2022-12-29T11:50:33;10.30;99.90
42141;DHT22;27809;51.864;5.646;2022-12-29T11:53:02;10.10;99.90
42141;DHT22;27809;51.864;5.646;2022-12-29T11:55:30;10.10;99.90
42141;DHT22;27809;51.864;5.646;2022-12-29T11:57:58;10.20;99.90
42141;DHT22;27809;51.864;5.646;2022-12-29T12:00:25;10.30;99.90
42141;DHT22;27809;51.864;5.646;2022-12-29T12:03:01;10.40;99.90
42141;DHT22;27809;51.864;5.646;2022-12-29T12:05:35;10.40;99.90
42141;DHT22;27809;51.864;5.646;2022-12-29T12:08:09;10.40;99.90
42141;DHT22;27809;51.864;5.646;2022-12-29T12:10:42;10.20;99.90
42141;DHT22;27809;51.864;5.646;2022-12-29T12:13:28;10.10;99.90
42141;DHT22;27809;51.864;5.646;2022-12-29T12:16:15;10.00;99.90
42141;DHT22;27809;51.864;5.646;2022-12-29T12:18:48;10.20;99.90
42141;DHT22;27809;51.864;5.646;2022-12-29T12:21:25;10.30;99.90
42141;DHT22;27809;51.864;5.646;2022-12-29T12:30:15;10.60;99.90
42141;DHT22;27809;51.864;5.646;2022-12-29T12:33:18;10.20;99.90
42141;DHT22;27809;51.864;5.646;2022-12-29T12:39:10;10.50;99.90
42141;DHT22;27809;51.864;5.646;2022-12-29T12:41:52;10.90;99.90
42141;DHT22;27809;51.864;5.646;2022-12-29T12:47:08;10.10;99.90
42141;DHT22;27809;51.864;5.646;2022-12-29T12:52:32;9.90;99.90
42141;DHT22;27809;51.864;5.646;2022-12-29T13:04:05;10.00;99.90
42141;DHT22;27809;51.864;5.646;2022-12-29T13:11:48;10.00;99.90
42141;DHT22;27809;51.864;5.646;2022-12-29T13:14:28;10.00;99.90
42141;DHT22;27809;51.864;5.646;2022-12-29T13:17:16;11.90;99.90
42141;DHT22;27809;51.864;5.646;2022-12-29T13:20:07;10.40;99.90
42141;DHT22;27809;51.864;5.646;2022-12-29T13:23:13;10.10;99.90
42141;DHT22;27809;51.864;5.646;2022-12-29T13:25:51;10.10;99.90
42141;DHT22;27809;51.864;5.646;2022-12-29T13:28:35;10.10;99.90
42141;DHT22;27809;51.864;5.646;2022-12-29T13:36:37;10.00;99.90
42141;DHT22;27809;51.864;5.646;2022-12-29T13:39:06;10.00;99.90
42141;DHT22;27809;51.864;5.646;2022-12-29T13:41:42;10.10;99.90
42141;DHT22;27809;51.864;5.646;2022-12-29T13:44:16;10.00;99.90
42141;DHT22;27809;51.864;5.646;2022-12-29T13:46:46;9.90;99.90
42141;DHT22;27809;51.864;5.646;2022-12-29T13:49:17;9.80;99.90
42141;DHT22;27809;51.864;5.646;2022-12-29T13:51:54;9.70;99.90
42141;DHT22;27809;51.864;5.646;2022-12-29T13:54:44;9.60;99.90
42141;DHT22;27809;51.864;5.646;2022-12-29T13:57:28;9.60;99.90
42141;DHT22;27809;51.864;5.646;2022-12-29T14:00:03;9.60;99.90
42141;DHT22;27809;51.864;5.646;2022-12-29T14:08:13;9.30;99.90
42141;DHT22;27809;51.864;5.646;2022-12-29T14:10:47;9.30;99.90
42141;DHT22;27809;51.864;5.646;2022-12-29T14:13:18;9.30;99.90
42141;DHT22;27809;51.864;5.646;2022-12-29T14:15:52;9.30;99.90
42141;DHT22;27809;51.864;5.646;2022-12-29T14:18:23;9.20;99.90
42141;DHT22;27809;51.864;5.646;2022-12-29T14:21:07;9.10;99.90
42141;DHT22;27809;51.864;5.646;2022-12-29T14:28:39;8.90;99.90
42141;DHT22;27809;51.864;5.646;2022-12-29T14:36:53;8.90;99.90
42141;DHT22;27809;51.864;5.646;2022-12-29T14:42:01;8.90;99.90
42141;DHT22;27809;51.864;5.646;2022-12-29T14:44:29;8.90;99.90
42141;DHT22;27809;51.864;5.646;2022-12-29T14:49:22;8.80;99.90
42141;DHT22;27809;51.864;5.646;2022-12-29T14:51:52;8.70;99.90
42141;DHT22;27809;51.864;5.646;2022-12-29T14:57:02;8.80;99.90
42141;DHT22;27809;51.864;5.646;2022-12-29T14:59:30;8.80;99.90
42141;DHT22;27809;51.864;5.646;2022-12-29T15:01:58;8.80;99.90
42141;DHT22;27809;51.864;5.646;2022-12-29T15:04:30;8.90;99.90
42141;DHT22;27809;51.864;5.646;2022-12-29T15:06:56;8.80;99.90
42141;DHT22;27809;51.864;5.646;2022-12-29T15:09:34;8.90;99.90
42141;DHT22;27809;51.864;5.646;2022-12-29T15:14:52;8.80;99.90
42141;DHT22;27809;51.864;5.646;2022-12-29T15:17:32;8.90;99.90
42141;DHT22;27809;51.864;5.646;2022-12-29T15:20:21;8.80;99.90
42141;DHT22;27809;51.864;5.646;2022-12-29T15:22:57;8.70;99.90
42141;DHT22;27809;51.864;5.646;2022-12-29T15:25:24;8.80;99.90
42141;DHT22;27809;51.864;5.646;2022-12-29T15:28:00;8.80;99.90
42141;DHT22;27809;51.864;5.646;2022-12-29T15:30:26;8.80;99.90
42141;DHT22;27809;51.864;5.646;2022-12-29T15:32:52;8.70;99.90
42141;DHT22;27809;51.864;5.646;2022-12-29T15:35:35;8.70;99.90
42141;DHT22;27809;51.864;5.646;2022-12-29T15:38:19;8.60;99.90
42141;DHT22;27809;51.864;5.646;2022-12-29T15:40:45;8.50;99.90
42141;DHT22;27809;51.864;5.646;2022-12-29T15:43:30;8.40;99.90
42141;DHT22;27809;51.864;5.646;2022-12-29T15:46:00;8.50;99.90
42141;DHT22;27809;51.864;5.646;2022-12-29T15:48:26;8.50;99.90
42141;DHT22;27809;51.864;5.646;2022-12-29T15:50:53;8.50;99.90
42141;DHT22;27809;51.864;5.646;2022-12-29T15:53:26;8.50;99.90
42141;DHT22;27809;51.864;5.646;2022-12-29T15:55:56;8.50;99.90
42141;DHT22;27809;51.864;5.646;2022-12-29T15:58:25;8.50;99.90
42141;DHT22;27809;51.864;5.646;2022-12-29T16:00:53;8.50;99.90
42141;DHT22;27809;51.864;5.646;2022-12-29T16:03:21;8.50;99.90
42141;DHT22;27809;51.864;5.646;2022-12-29T16:05:57;8.50;99.90
42141;DHT22;27809;51.864;5.646;2022-12-29T16:08:32;8.50;99.90
42141;DHT22;27809;51.864;5.646;2022-12-29T16:11:01;8.50;99.90
42141;DHT22;27809;51.864;5.646;2022-12-29T16:13:31;8.50;99.90
42141;DHT22;27809;51.864;5.646;2022-12-29T16:16:22;8.50;99.90
42141;DHT22;27809;51.864;5.646;2022-12-29T16:18:51;8.40;99.90
42141;DHT22;27809;51.864;5.646;2022-12-29T16:21:34;8.40;99.90
42141;DHT22;27809;51.864;5.646;2022-12-29T16:24:05;8.50;99.90
42141;DHT22;27809;51.864;5.646;2022-12-29T16:26:32;8.40;99.90
42141;DHT22;27809;51.864;5.646;2022-12-29T16:29:00;8.40;99.90
42141;DHT22;27809;51.864;5.646;2022-12-29T16:31:50;8.30;99.90
42141;DHT22;27809;51.864;5.646;2022-12-29T16:35:10;8.40;99.90
42141;DHT22;27809;51.864;5.646;2022-12-29T16:37:36;8.10;99.90
42141;DHT22;27809;51.864;5.646;2022-12-29T16:50:30;8.00;99.90
42141;DHT22;27809;51.864;5.646;2022-12-29T16:52:56;8.10;99.90
42141;DHT22;27809;51.864;5.646;2022-12-29T16:55:21;8.00;99.90
42141;DHT22;27809;51.864;5.646;2022-12-29T16:57:49;8.00;99.90
42141;DHT22;27809;51.864;5.646;2022-12-29T17:00:20;8.00;99.90
42141;DHT22;27809;51.864;5.646;2022-12-29T17:02:48;8.10;99.90
42141;DHT22;27809;51.864;5.646;2022-12-29T17:05:16;8.00;99.90
42141;DHT22;27809;51.864;5.646;2022-12-29T17:07:42;7.90;99.90
42141;DHT22;27809;51.864;5.646;2022-12-29T17:10:08;8.00;99.90
42141;DHT22;27809;51.864;5.646;2022-12-29T17:12:34;7.90;99.90
42141;DHT22;27809;51.864;5.646;2022-12-29T17:15:01;7.80;99.90
42141;DHT22;27809;51.864;5.646;2022-12-29T17:17:33;7.90;99.90
42141;DHT22;27809;51.864;5.646;2022-12-29T17:20:24;7.80;99.90
42141;DHT22;27809;51.864;5.646;2022-12-29T17:22:51;7.70;99.90
42141;DHT22;27809;51.864;5.646;2022-12-29T17:25:23;7.70;99.90
42141;DHT22;27809;51.864;5.646;2022-12-29T17:28:38;7.80;99.90
42141;DHT22;27809;51.864;5.646;2022-12-29T17:30:39;7.70;99.90
42141;DHT22;27809;51.864;5.646;2022-12-29T17:33:08;7.70;99.90
42141;DHT22;27809;51.864;5.646;2022-12-29T17:35:34;7.70;99.90
42141;DHT22;27809;51.864;5.646;2022-12-29T17:38:00;7.70;99.90
42141;DHT22;27809;51.864;5.646;2022-12-29T17:40:27;7.70;99.90
42141;DHT22;27809;51.864;5.646;2022-12-29T17:42:56;7.60;99.90
42141;DHT22;27809;51.864;5.646;2022-12-29T17:45:30;7.60;99.90
42141;DHT22;27809;51.864;5.646;2022-12-29T17:47:57;7.60;99.90
42141;DHT22;27809;51.864;5.646;2022-12-29T17:50:28;7.50;99.90
42141;DHT22;27809;51.864;5.646;2022-12-29T17:52:56;7.40;99.90
42141;DHT22;27809;51.864;5.646;2022-12-29T17:55:23;7.40;99.90
42141;DHT22;27809;51.864;5.646;2022-12-29T17:57:49;7.30;99.90